Ever Loading — 2HDG4 — position and weather

sailwx.info

Track history (hours):
 
Tides and Currents Weather Stations Pressure Air Temp Water Temp Dewpoint Dewpoint Depression Visibility Wind Speed Wind Dir Waves Ship Positions

Ever Loading

Last reported at 2018-Jul-17 00:00 UTC. Time now 2018-Jul-17 01:52 UTC.
Position N 45°12' E 171°12'.

Length 335 m; draft 11.2 m.

Type: Ship (hazmat cat A). MMSI: 235102681.

Wind from 220 at 29 knots

Barometer 1024.0 mb
Air temperature 12.0 ° C
Visibility: greater than 0.0 NM
Dewpoint 7.9 ° C

Date/timePositionNaut miles runAvg speedWind from/ knotsBaromVisibWave heightAir tempDewpointWater temp
2018-Jul-17 00:00N 45°12' E 171°12'9015.1 220 / 291024.0 0.0 12.0 7.9
2018-Jul-16 18:00N 45°30' E 173°18'9015.0 210 / 171025.0 0.0 11.0 9.0 9.0
2018-Jul-16 12:00N 45°48' E 175°24'7612.7 210 / 311026.0 0.0 11.0 9.0
2018-Jul-16 06:00N 46°00' E 177°12'9215.4 230 / 181028.0 0.0 11.011.0 9.0
2018-Jul-16 00:00N 46°12' E 179°24'17514.6 250 / 241030.0 0.1 11.0 9.0
2018-Jul-15 12:00N 46°30' W 176°24'26414.7 280 / 121027.0 11.0 4.3
2018-Jul-14 18:00N 46°36' W 170°00'9215.3 240 / 181027.0 0.0 10.0 7.9 9.0
2018-Jul-14 12:00N 46°24' W 167°48'7510.7 250 / 251027.0 5.4 8.0 8.0
2018-Jul-14 05:00N 46°30' W 166°00'   210 / 201029.0 5.4 11.0 9.0 8.0
2018-Jul-09 08:10N 37°49' W 128°19'214.5
2018-Jul-09 08:00N 37°48' W 128°16'2314.2
2018-Jul-09 06:21N 37°36' W 127°50'3814.5
2018-Jul-09 03:45N 37°30' W 127°03'415.1
2018-Jul-09 03:31N 37°30' W 126°59'815.4
2018-Jul-09 03:00N 37°30' W 126°49'815.5
2018-Jul-09 02:29N 37°30' W 126°39'715.0
2018-Jul-09 02:00N 37°30' W 126°29'715.1
2018-Jul-09 01:30N 37°30' W 126°20'1015.1
2018-Jul-09 00:50N 37°30' W 126°07'514.9
2018-Jul-09 00:30N 37°30' W 126°01'714.8
2018-Jul-09 00:00N 37°30' W 125°52'714.7
2018-Jul-08 23:30N 37°30' W 125°43'914.8
2018-Jul-08 22:56N 37°30' W 125°32'614.8
2018-Jul-08 22:30N 37°30' W 125°24'914.4
2018-Jul-08 21:54N 37°30' W 125°13'614.5
2018-Jul-08 21:30N 37°30' W 125°06'714.6
2018-Jul-08 21:00N 37°30' W 124°56'714.4
2018-Jul-08 20:30N 37°30' W 124°47'914.1
2018-Jul-08 19:53N 37°30' W 124°36'514.2
2018-Jul-08 19:30N 37°30' W 124°30'714.3
2018-Jul-08 19:00N 37°30' W 124°21'714.6
2018-Jul-08 18:30N 37°30' W 124°11'714.5
2018-Jul-08 18:00N 37°30' W 124°02'714.7
2018-Jul-08 17:30N 37°30' W 123°53'714.2
2018-Jul-08 17:00N 37°30' W 123°44'714.0
2018-Jul-08 16:30N 37°30' W 123°35'713.8
2018-Jul-08 16:00N 37°30' W 123°27'714.0
2018-Jul-08 15:31N 37°30' W 123°18'713.8
2018-Jul-08 15:00N 37°31' W 123°09'612.4
2018-Jul-08 14:30N 37°35' W 123°03'5 9.5
2018-Jul-08 14:00N 37°37' W 122°58'5 9.6
2018-Jul-08 13:30N 37°40' W 122°53'5 9.7
2018-Jul-08 13:00N 37°43' W 122°47'5 9.4
2018-Jul-08 12:30N 37°45' W 122°43'5 9.7
2018-Jul-08 12:00N 37°46' W 122°37'714.2
2018-Jul-08 11:30N 37°49' W 122°28'510.8
2018-Jul-08 11:00N 37°48' W 122°22'1 2.5
2018-Jul-08 10:30N 37°48' W 122°20'0 0.0
2018-Jul-08 10:00N 37°48' W 122°20'0 0.0
2018-Jul-08 09:30N 37°48' W 122°20'0 0.0
2018-Jul-08 08:58N 37°48' W 122°20'0 0.0
2018-Jul-08 08:31N 37°48' W 122°20'0 0.0
2018-Jul-08 08:01N 37°48' W 122°20'0 0.0
2018-Jul-08 07:30N 37°48' W 122°20'0 0.0
2018-Jul-08 07:00N 37°48' W 122°20'0 0.0
2018-Jul-08 06:28N 37°48' W 122°20'0 0.0
2018-Jul-08 06:01N 37°48' W 122°20'0 0.0
2018-Jul-08 05:30N 37°48' W 122°20'0 0.1
2018-Jul-08 05:01N 37°48' W 122°20'0 0.1
2018-Jul-08 04:28N 37°48' W 122°20'0 0.0
2018-Jul-08 03:57N 37°48' W 122°20'0 0.0
2018-Jul-08 03:30N 37°48' W 122°20'0 0.0
2018-Jul-08 02:58N 37°48' W 122°20'0 0.0
2018-Jul-08 02:30N 37°48' W 122°20'0 0.0
2018-Jul-08 01:57N 37°48' W 122°20'0 0.0
2018-Jul-08 01:28N 37°48' W 122°20'0 0.0
2018-Jul-08 01:00N 37°48' W 122°20'0 0.0
2018-Jul-08 00:27N 37°48' W 122°20'0 0.0
2018-Jul-08 00:00N 37°48' W 122°20'0 0.0
2018-Jul-07 23:30N 37°48' W 122°20'0 0.0
2018-Jul-07 23:00N 37°48' W 122°20'0 0.0
2018-Jul-07 22:30N 37°48' W 122°20'0 0.0
2018-Jul-07 22:01N 37°48' W 122°20'0 0.0
2018-Jul-07 21:30N 37°48' W 122°20'0 0.0
2018-Jul-07 21:01N 37°48' W 122°20'0 0.0
2018-Jul-07 20:31N 37°48' W 122°20'0 0.0
2018-Jul-07 19:58N 37°48' W 122°20'0 0.0
2018-Jul-07 19:27N 37°48' W 122°20'0 0.0
2018-Jul-07 19:01N 37°48' W 122°20'0 0.0
2018-Jul-07 18:31N 37°48' W 122°20'0 0.0
2018-Jul-07 18:00N 37°48' W 122°20'0 0.0
2018-Jul-07 17:31N 37°48' W 122°20'0 0.0
2018-Jul-07 16:58N 37°48' W 122°20'0 0.0
2018-Jul-07 16:28N 37°48' W 122°20'0 0.0
2018-Jul-07 16:01N 37°48' W 122°20'0 0.0
2018-Jul-07 15:30N 37°48' W 122°20'0 0.0
2018-Jul-07 15:00N 37°48' W 122°20'0 0.0
2018-Jul-07 14:30N 37°48' W 122°20'0 0.0
2018-Jul-07 14:00N 37°48' W 122°20'0 0.0
2018-Jul-07 13:30N 37°48' W 122°20'0 0.0
2018-Jul-07 13:01N 37°48' W 122°20'0 0.0
2018-Jul-07 12:28N 37°48' W 122°20'0 0.0
2018-Jul-07 12:01N 37°48' W 122°20'0 0.0
2018-Jul-07 11:30N 37°48' W 122°20'0 0.0
2018-Jul-07 10:57N 37°48' W 122°20'0 0.0
2018-Jul-07 10:30N 37°48' W 122°20'0 0.0
2018-Jul-07 10:01N 37°48' W 122°20'0 0.0
2018-Jul-07 09:30N 37°48' W 122°20'0 0.0
2018-Jul-07 08:58N 37°48' W 122°20'0 0.0
2018-Jul-07 08:31N 37°48' W 122°20'0 0.0
2018-Jul-07 08:01N 37°48' W 122°20'0 0.0
2018-Jul-07 07:27N 37°48' W 122°20'0 0.0
2018-Jul-07 06:58N 37°48' W 122°20'0 0.0
2018-Jul-07 06:31N 37°48' W 122°20'0 0.0
2018-Jul-07 05:58N 37°48' W 122°20'0 0.0
2018-Jul-07 05:31N 37°48' W 122°20'0 0.0
2018-Jul-07 05:00N 37°48' W 122°20'0 0.0
2018-Jul-07 04:31N 37°48' W 122°20'0 0.0
2018-Jul-07 04:01N 37°48' W 122°20'0 0.0
2018-Jul-07 03:27N 37°48' W 122°20'0 0.0
2018-Jul-07 03:01N 37°48' W 122°20'0 0.0
2018-Jul-07 02:27N 37°48' W 122°20'0 0.0
2018-Jul-07 02:00N 37°48' W 122°20'0 0.0
2018-Jul-07 01:27N 37°48' W 122°20'0 0.0
2018-Jul-07 01:00N 37°48' W 122°20'0 0.0
2018-Jul-07 00:31N 37°48' W 122°20'0 0.0
2018-Jul-07 00:00N 37°48' W 122°20'  
Track history (hours):
 
Tides and Currents Weather Stations Pressure Air Temp Water Temp Dewpoint Dewpoint Depression Visibility Wind Speed Wind Dir Waves Ship Positions

Ever Loading

Last reported at 2018-Jul-17 00:00 UTC. Time now 2018-Jul-17 01:52 UTC.
Position N 45°12' E 171°12'.

Length 335 m; draft 11.2 m.

Type: Ship (hazmat cat A). MMSI: 235102681.

Wind from 220 at 29 knots

Barometer 1024.0 mb
Air temperature 12.0 ° C
Visibility: greater than 0.0 NM
Dewpoint 7.9 ° C

Date/timePositionNaut miles runAvg speedWind from/ knotsBaromVisibWave heightAir tempDewpointWater temp
2018-Jul-17 00:00N 45°12' E 171°12'9015.1 220 / 291024.0 0.0 12.0 7.9
2018-Jul-16 18:00N 45°30' E 173°18'9015.0 210 / 171025.0 0.0 11.0 9.0 9.0
2018-Jul-16 12:00N 45°48' E 175°24'7612.7 210 / 311026.0 0.0 11.0 9.0
2018-Jul-16 06:00N 46°00' E 177°12'9215.4 230 / 181028.0 0.0 11.011.0 9.0
2018-Jul-16 00:00N 46°12' E 179°24'17514.6 250 / 241030.0 0.1 11.0 9.0
2018-Jul-15 12:00N 46°30' W 176°24'26414.7 280 / 121027.0 11.0 4.3
2018-Jul-14 18:00N 46°36' W 170°00'9215.3 240 / 181027.0 0.0 10.0 7.9 9.0
2018-Jul-14 12:00N 46°24' W 167°48'7510.7 250 / 251027.0 5.4 8.0 8.0
2018-Jul-14 05:00N 46°30' W 166°00'   210 / 201029.0 5.4 11.0 9.0 8.0
2018-Jul-09 08:10N 37°49' W 128°19'214.5
2018-Jul-09 08:00N 37°48' W 128°16'2314.2
2018-Jul-09 06:21N 37°36' W 127°50'3814.5
2018-Jul-09 03:45N 37°30' W 127°03'415.1
2018-Jul-09 03:31N 37°30' W 126°59'815.4
2018-Jul-09 03:00N 37°30' W 126°49'815.5
2018-Jul-09 02:29N 37°30' W 126°39'715.0
2018-Jul-09 02:00N 37°30' W 126°29'715.1
2018-Jul-09 01:30N 37°30' W 126°20'1015.1
2018-Jul-09 00:50N 37°30' W 126°07'514.9
2018-Jul-09 00:30N 37°30' W 126°01'714.8
2018-Jul-09 00:00N 37°30' W 125°52'714.7
2018-Jul-08 23:30N 37°30' W 125°43'914.8
2018-Jul-08 22:56N 37°30' W 125°32'614.8
2018-Jul-08 22:30N 37°30' W 125°24'914.4
2018-Jul-08 21:54N 37°30' W 125°13'614.5
2018-Jul-08 21:30N 37°30' W 125°06'714.6
2018-Jul-08 21:00N 37°30' W 124°56'714.4
2018-Jul-08 20:30N 37°30' W 124°47'914.1
2018-Jul-08 19:53N 37°30' W 124°36'514.2
2018-Jul-08 19:30N 37°30' W 124°30'714.3
2018-Jul-08 19:00N 37°30' W 124°21'714.6
2018-Jul-08 18:30N 37°30' W 124°11'714.5
2018-Jul-08 18:00N 37°30' W 124°02'714.7
2018-Jul-08 17:30N 37°30' W 123°53'714.2
2018-Jul-08 17:00N 37°30' W 123°44'714.0
2018-Jul-08 16:30N 37°30' W 123°35'713.8
2018-Jul-08 16:00N 37°30' W 123°27'714.0
2018-Jul-08 15:31N 37°30' W 123°18'713.8
2018-Jul-08 15:00N 37°31' W 123°09'612.4
2018-Jul-08 14:30N 37°35' W 123°03'5 9.5
2018-Jul-08 14:00N 37°37' W 122°58'5 9.6
2018-Jul-08 13:30N 37°40' W 122°53'5 9.7
2018-Jul-08 13:00N 37°43' W 122°47'5 9.4
2018-Jul-08 12:30N 37°45' W 122°43'5 9.7
2018-Jul-08 12:00N 37°46' W 122°37'714.2
2018-Jul-08 11:30N 37°49' W 122°28'510.8
2018-Jul-08 11:00N 37°48' W 122°22'1 2.5
2018-Jul-08 10:30N 37°48' W 122°20'0 0.0
2018-Jul-08 10:00N 37°48' W 122°20'0 0.0
2018-Jul-08 09:30N 37°48' W 122°20'0 0.0
2018-Jul-08 08:58N 37°48' W 122°20'0 0.0
2018-Jul-08 08:31N 37°48' W 122°20'0 0.0
2018-Jul-08 08:01N 37°48' W 122°20'0 0.0
2018-Jul-08 07:30N 37°48' W 122°20'0 0.0
2018-Jul-08 07:00N 37°48' W 122°20'0 0.0
2018-Jul-08 06:28N 37°48' W 122°20'0 0.0
2018-Jul-08 06:01N 37°48' W 122°20'0 0.0
2018-Jul-08 05:30N 37°48' W 122°20'0 0.1
2018-Jul-08 05:01N 37°48' W 122°20'0 0.1
2018-Jul-08 04:28N 37°48' W 122°20'0 0.0
2018-Jul-08 03:57N 37°48' W 122°20'0 0.0
2018-Jul-08 03:30N 37°48' W 122°20'0 0.0
2018-Jul-08 02:58N 37°48' W 122°20'0 0.0
2018-Jul-08 02:30N 37°48' W 122°20'0 0.0
2018-Jul-08 01:57N 37°48' W 122°20'0 0.0
2018-Jul-08 01:28N 37°48' W 122°20'0 0.0
2018-Jul-08 01:00N 37°48' W 122°20'0 0.0
2018-Jul-08 00:27N 37°48' W 122°20'0 0.0
2018-Jul-08 00:00N 37°48' W 122°20'0 0.0
2018-Jul-07 23:30N 37°48' W 122°20'0 0.0
2018-Jul-07 23:00N 37°48' W 122°20'0 0.0
2018-Jul-07 22:30N 37°48' W 122°20'0 0.0
2018-Jul-07 22:01N 37°48' W 122°20'0 0.0
2018-Jul-07 21:30N 37°48' W 122°20'0 0.0
2018-Jul-07 21:01N 37°48' W 122°20'0 0.0
2018-Jul-07 20:31N 37°48' W 122°20'0 0.0
2018-Jul-07 19:58N 37°48' W 122°20'0 0.0
2018-Jul-07 19:27N 37°48' W 122°20'0 0.0
2018-Jul-07 19:01N 37°48' W 122°20'0 0.0
2018-Jul-07 18:31N 37°48' W 122°20'0 0.0
2018-Jul-07 18:00N 37°48' W 122°20'0 0.0
2018-Jul-07 17:31N 37°48' W 122°20'0 0.0
2018-Jul-07 16:58N 37°48' W 122°20'0 0.0
2018-Jul-07 16:28N 37°48' W 122°20'0 0.0
2018-Jul-07 16:01N 37°48' W 122°20'0 0.0
2018-Jul-07 15:30N 37°48' W 122°20'0 0.0
2018-Jul-07 15:00N 37°48' W 122°20'0 0.0
2018-Jul-07 14:30N 37°48' W 122°20'0 0.0
2018-Jul-07 14:00N 37°48' W 122°20'0 0.0
2018-Jul-07 13:30N 37°48' W 122°20'0 0.0
2018-Jul-07 13:01N 37°48' W 122°20'0 0.0
2018-Jul-07 12:28N 37°48' W 122°20'0 0.0
2018-Jul-07 12:01N 37°48' W 122°20'0 0.0
2018-Jul-07 11:30N 37°48' W 122°20'0 0.0
2018-Jul-07 10:57N 37°48' W 122°20'0 0.0
2018-Jul-07 10:30N 37°48' W 122°20'0 0.0
2018-Jul-07 10:01N 37°48' W 122°20'0 0.0
2018-Jul-07 09:30N 37°48' W 122°20'0 0.0
2018-Jul-07 08:58N 37°48' W 122°20'0 0.0
2018-Jul-07 08:31N 37°48' W 122°20'0 0.0
2018-Jul-07 08:01N 37°48' W 122°20'0 0.0
2018-Jul-07 07:27N 37°48' W 122°20'0 0.0
2018-Jul-07 06:58N 37°48' W 122°20'0 0.0
2018-Jul-07 06:31N 37°48' W 122°20'0 0.0
2018-Jul-07 05:58N 37°48' W 122°20'0 0.0
2018-Jul-07 05:31N 37°48' W 122°20'0 0.0
2018-Jul-07 05:00N 37°48' W 122°20'0 0.0
2018-Jul-07 04:31N 37°48' W 122°20'0 0.0
2018-Jul-07 04:01N 37°48' W 122°20'0 0.0
2018-Jul-07 03:27N 37°48' W 122°20'0 0.0
2018-Jul-07 03:01N 37°48' W 122°20'0 0.0
2018-Jul-07 02:27N 37°48' W 122°20'0 0.0
2018-Jul-07 02:00N 37°48' W 122°20'0 0.0
2018-Jul-07 01:27N 37°48' W 122°20'0 0.0
2018-Jul-07 01:00N 37°48' W 122°20'0 0.0
2018-Jul-07 00:31N 37°48' W 122°20'0 0.0
2018-Jul-07 00:00N 37°48' W 122°20'  

Dump ship's entire track history